createdAt,value
2023-05-12T00:01:14.365Z,94695.88
2023-05-12T00:03:41.689Z,94691.56
2023-05-12T00:06:08.458Z,94693.19
2023-05-12T00:08:35.222Z,94691.84
2023-05-12T00:11:02.321Z,94689.28
2023-05-12T00:13:29.192Z,94691.84
2023-05-12T00:15:58.737Z,94692.53
2023-05-12T00:18:26.542Z,94691.72
2023-05-12T00:20:54.634Z,94683.34
2023-05-12T00:23:22.738Z,94689.97
2023-05-12T00:25:50.096Z,94683.63
2023-05-12T00:28:18.526Z,94680.09
2023-05-12T00:30:45.900Z,94678.09
2023-05-12T00:33:12.978Z,94679.56
2023-05-12T00:35:39.545Z,94677.69
2023-05-12T00:38:06.127Z,94671.44
2023-05-12T00:40:32.799Z,94674.00
2023-05-12T00:42:59.379Z,94674.00
2023-05-12T00:45:26.723Z,94675.47
2023-05-12T00:47:53.840Z,94672.91
2023-05-12T00:50:21.855Z,94676.66
2023-05-12T00:52:50.180Z,94671.38
2023-05-12T00:55:17.113Z,94672.84
2023-05-12T00:57:43.871Z,94669.66
2023-05-12T01:00:12.116Z,94672.22
2023-05-12T01:02:41.026Z,94669.44
2023-05-12T01:05:10.183Z,94659.53
2023-05-12T01:07:39.110Z,94662.56
2023-05-12T01:10:17.831Z,94664.91
2023-05-12T01:12:44.702Z,94668.28
2023-05-12T01:15:12.952Z,94665.19
2023-05-12T01:17:46.925Z,94665.56
2023-05-12T01:20:16.575Z,94662.09
2023-05-12T01:22:43.940Z,94665.34
2023-05-12T01:25:14.602Z,94669.66
2023-05-12T01:27:42.614Z,94668.16
2023-05-12T01:30:12.208Z,94665.84
2023-05-12T01:32:40.584Z,94657.06
2023-05-12T01:35:08.188Z,94658.72
2023-05-12T01:37:36.448Z,94658.19
2023-05-12T01:40:05.591Z,94658.88
2023-05-12T01:42:32.357Z,94665.38
2023-05-12T01:44:59.081Z,94662.47
2023-05-12T01:47:26.838Z,94665.53
2023-05-12T01:50:03.600Z,94668.63
2023-05-12T01:52:30.283Z,94659.97
2023-05-12T01:54:57.505Z,94674.94
2023-05-12T01:57:25.199Z,94668.22
2023-05-12T01:59:55.506Z,94669.00
2023-05-12T02:02:22.824Z,94666.88
2023-05-12T02:04:49.428Z,94669.28
2023-05-12T02:07:16.035Z,94662.56
2023-05-12T02:09:44.093Z,94668.94
2023-05-12T02:12:10.715Z,94665.38
2023-05-12T02:14:37.714Z,94664.56
2023-05-12T02:17:04.658Z,94660.91
2023-05-12T02:19:31.504Z,94661.22
2023-05-12T02:21:59.166Z,94659.44
2023-05-12T02:24:25.836Z,94659.59
2023-05-12T02:26:52.548Z,94659.06
2023-05-12T02:29:19.313Z,94656.81
2023-05-12T02:31:46.042Z,94659.06
2023-05-12T02:34:16.105Z,94660.97
2023-05-12T02:36:42.944Z,94662.31
2023-05-12T02:39:11.068Z,94658.66
2023-05-12T02:41:37.779Z,94664.06
2023-05-12T02:44:04.558Z,94665.69
2023-05-12T02:46:31.224Z,94662.72
2023-05-12T02:48:57.795Z,94665.44
2023-05-12T02:51:24.533Z,94664.25
2023-05-12T02:53:51.306Z,94662.25
2023-05-12T02:56:18.048Z,94657.41
2023-05-12T02:58:44.627Z,94656.06
2023-05-12T03:01:11.901Z,94652.44
2023-05-12T03:03:40.356Z,94656.91
2023-05-12T03:06:07.622Z,94660.75
2023-05-12T03:08:34.862Z,94665.22
2023-05-12T03:11:02.031Z,94661.53
2023-05-12T03:13:28.897Z,94667.81
2023-05-12T03:15:55.830Z,94669.03
2023-05-12T03:18:22.853Z,94667.25
2023-05-12T03:20:50.311Z,94664.63
2023-05-12T03:23:17.152Z,94669.19
2023-05-12T03:25:44.160Z,94663.97
2023-05-12T03:28:11.414Z,94669.78
2023-05-12T03:30:38.451Z,94663.69
2023-05-12T03:33:05.339Z,94664.63
2023-05-12T03:35:32.324Z,94661.88
2023-05-12T03:38:01.587Z,94670.44
2023-05-12T03:40:28.363Z,94666.97
2023-05-12T03:42:55.035Z,94664.84
2023-05-12T03:45:21.828Z,94662.09
2023-05-12T03:47:48.854Z,94659.16
2023-05-12T03:50:15.569Z,94655.78
2023-05-12T03:52:42.231Z,94663.50
2023-05-12T03:55:09.362Z,94662.94
2023-05-12T03:57:36.690Z,94666.97
2023-05-12T04:00:05.437Z,94665.34
2023-05-12T04:02:39.510Z,94668.59
2023-05-12T04:05:08.623Z,94669.25
2023-05-12T04:07:35.781Z,94672.22
2023-05-12T04:10:03.098Z,94670.88
2023-05-12T04:12:29.849Z,94667.50
2023-05-12T04:14:57.251Z,94673.88
2023-05-12T04:17:25.185Z,94672.94
2023-05-12T04:19:53.596Z,94674.53
2023-05-12T04:22:20.302Z,94668.69
2023-05-12T04:24:47.049Z,94676.28
2023-05-12T04:27:14.565Z,94670.06
2023-05-12T04:29:41.392Z,94676.59
2023-05-12T04:32:08.456Z,94680.91
2023-05-12T04:34:35.382Z,94684.66
2023-05-12T04:37:02.087Z,94685.84
2023-05-12T04:39:29.664Z,94686.69
2023-05-12T04:41:56.890Z,94689.09
2023-05-12T04:44:23.742Z,94692.84
2023-05-12T04:46:53.439Z,94688.00
2023-05-12T04:49:20.366Z,94694.63
2023-05-12T04:51:47.942Z,94696.38
2023-05-12T04:54:14.516Z,94692.59
2023-05-12T04:56:41.735Z,94689.84
2023-05-12T04:59:08.438Z,94692.72
2023-05-12T05:01:35.248Z,94691.63
2023-05-12T05:04:02.573Z,94698.09
2023-05-12T05:06:29.833Z,94696.50
2023-05-12T05:08:56.735Z,94692.53
2023-05-12T05:11:23.659Z,94692.75
2023-05-12T05:13:50.938Z,94697.63
2023-05-12T05:16:17.610Z,94697.03
2023-05-12T05:18:46.637Z,94701.91
2023-05-12T05:21:16.584Z,94697.47
2023-05-12T05:23:43.504Z,94701.19
2023-05-12T05:26:10.736Z,94700.16
2023-05-12T05:28:40.086Z,94706.66
2023-05-12T05:31:08.100Z,94704.34
2023-05-12T05:33:35.190Z,94705.59
2023-05-12T05:36:03.141Z,94710.97
2023-05-12T05:38:30.766Z,94708.81
2023-05-12T05:40:57.398Z,94704.84
2023-05-12T05:43:25.898Z,94705.00
2023-05-12T05:45:53.083Z,94706.91
2023-05-12T05:48:21.772Z,94708.22
2023-05-12T05:50:48.957Z,94707.81
2023-05-12T05:53:16.242Z,94703.09
2023-05-12T05:55:43.406Z,94701.34
2023-05-12T05:58:10.368Z,94699.84
2023-05-12T06:00:37.112Z,94704.72
2023-05-12T06:03:04.098Z,94702.22
2023-05-12T06:05:30.975Z,94709.84
2023-05-12T06:07:57.736Z,94712.66
2023-05-12T06:10:25.563Z,94708.53
2023-05-12T06:12:52.148Z,94711.34
2023-05-12T06:15:19.195Z,94718.44
2023-05-12T06:17:46.012Z,94715.81
2023-05-12T06:20:13.473Z,94719.56
2023-05-12T06:22:42.393Z,94725.53
2023-05-12T06:25:10.276Z,94719.94
2023-05-12T06:27:38.037Z,94720.81
2023-05-12T06:30:06.295Z,94724.16
2023-05-12T06:32:33.366Z,94734.81
2023-05-12T06:35:00.034Z,94733.38
2023-05-12T06:37:27.558Z,94733.44
2023-05-12T06:39:54.081Z,94730.63
2023-05-12T06:42:20.665Z,94733.69
2023-05-12T06:44:51.850Z,94728.72
2023-05-12T06:47:20.725Z,94736.03
2023-05-12T06:49:50.010Z,94732.63
2023-05-12T06:52:17.128Z,94735.22
2023-05-12T06:54:43.776Z,94729.50
2023-05-12T06:57:10.847Z,94725.75
2023-05-12T06:59:37.445Z,94724.94
2023-05-12T07:02:04.059Z,94731.03
2023-05-12T07:04:30.664Z,94730.94
2023-05-12T07:06:57.390Z,94728.78
2023-05-12T07:09:24.544Z,94728.19
2023-05-12T07:11:51.180Z,94733.28
2023-05-12T07:14:17.882Z,94730.88
2023-05-12T07:16:44.513Z,94728.16
2023-05-12T07:19:11.289Z,94724.13
2023-05-12T07:21:38.031Z,94733.38
2023-05-12T07:24:06.340Z,94726.75
2023-05-12T07:26:33.708Z,94721.91
2023-05-12T07:29:01.001Z,94730.47
2023-05-12T07:31:28.641Z,94732.09
2023-05-12T07:33:55.592Z,94722.53
2023-05-12T07:36:22.291Z,94726.75
2023-05-12T07:38:48.956Z,94728.66
2023-05-12T07:41:15.693Z,94723.00
2023-05-12T07:43:42.330Z,94726.25
2023-05-12T07:46:08.882Z,94728.84
2023-05-12T07:48:40.320Z,94721.91
2023-05-12T07:51:08.282Z,94723.31
2023-05-12T07:53:35.275Z,94722.78
2023-05-12T07:56:02.356Z,94718.31
2023-05-12T07:58:29.052Z,94720.41
2023-05-12T08:00:57.018Z,94723.13
2023-05-12T08:03:23.750Z,94724.44
2023-05-12T08:05:50.351Z,94715.75
2023-05-12T08:08:17.115Z,94717.72
2023-05-12T08:10:44.282Z,94713.00
2023-05-12T08:13:11.030Z,94725.84
2023-05-12T08:15:37.587Z,94720.06
2023-05-12T08:18:04.424Z,94719.53
2023-05-12T08:20:32.131Z,94714.31
2023-05-12T08:22:58.735Z,94714.38
2023-05-12T08:25:25.888Z,94715.09
2023-05-12T08:27:52.673Z,94712.50
2023-05-12T08:30:19.451Z,94716.38
2023-05-12T08:32:46.295Z,94721.75
2023-05-12T08:35:12.940Z,94716.75
2023-05-12T08:37:39.493Z,94725.75
2023-05-12T08:40:16.780Z,94725.16
2023-05-12T08:42:49.288Z,94721.00
2023-05-12T08:45:16.039Z,94723.59
2023-05-12T08:47:43.685Z,94718.09
2023-05-12T08:50:11.651Z,94727.66
2023-05-12T08:52:38.915Z,94724.59
2023-05-12T08:55:06.873Z,94726.97
2023-05-12T08:57:34.280Z,94725.06
2023-05-12T09:00:02.454Z,94720.22
2023-05-12T09:02:44.739Z,94727.38
2023-05-12T09:05:18.560Z,94723.56
2023-05-12T09:07:46.247Z,94724.88
2023-05-12T09:10:29.916Z,94728.84
2023-05-12T09:13:04.687Z,94734.03
2023-05-12T09:15:35.968Z,94732.66
2023-05-12T09:18:02.549Z,94734.59
2023-05-12T09:20:31.885Z,94741.53
2023-05-12T09:23:00.252Z,94740.41
2023-05-12T09:25:26.907Z,94738.50
2023-05-12T09:27:57.506Z,94737.38
2023-05-12T09:30:32.131Z,94741.06
2023-05-12T09:33:11.774Z,94743.16
2023-05-12T09:35:45.714Z,94735.81
2023-05-12T09:38:14.573Z,94739.41
2023-05-12T09:40:41.306Z,94738.56
2023-05-12T09:43:08.619Z,94739.00
2023-05-12T09:45:37.065Z,94739.84
2023-05-12T09:48:11.477Z,94741.81
2023-05-12T09:50:47.925Z,94747.28
2023-05-12T09:53:17.281Z,94738.59
2023-05-12T09:55:45.152Z,94740.31
2023-05-12T09:58:13.518Z,94739.50
2023-05-12T10:01:06.054Z,94744.63
2023-05-12T10:03:30.342Z,94743.81
2023-05-12T10:06:04.544Z,94737.41
2023-05-12T10:08:37.789Z,94741.94
2023-05-12T10:11:06.367Z,94742.31
2023-05-12T10:13:34.151Z,94737.78
2023-05-12T10:16:01.222Z,94744.44
2023-05-12T10:18:28.278Z,94739.94
2023-05-12T10:20:56.710Z,94737.00
2023-05-12T10:23:24.497Z,94735.81
2023-05-12T10:25:53.443Z,94739.34
2023-05-12T10:28:20.256Z,94739.25
2023-05-12T10:30:48.440Z,94740.81
2023-05-12T10:33:15.773Z,94739.78
2023-05-12T10:35:44.209Z,94743.78
2023-05-12T10:38:13.110Z,94737.59
2023-05-12T10:40:59.772Z,94742.81
2023-05-12T10:43:42.758Z,94744.69
2023-05-12T10:46:12.515Z,94745.72
2023-05-12T10:48:52.744Z,94743.41
2023-05-12T10:51:28.307Z,94746.13
2023-05-12T10:54:10.015Z,94751.78
2023-05-12T10:56:39.420Z,94741.28
2023-05-12T10:59:14.271Z,94746.97
2023-05-12T11:01:43.452Z,94748.75
2023-05-12T11:04:16.276Z,94746.66
2023-05-12T11:06:45.222Z,94752.94
2023-05-12T11:09:13.487Z,94748.28
2023-05-12T11:11:41.143Z,94748.56
2023-05-12T11:14:09.538Z,94753.94
2023-05-12T11:16:42.891Z,94753.81
2023-05-12T11:19:09.624Z,94753.31
2023-05-12T11:21:37.148Z,94762.69
2023-05-12T11:24:04.068Z,94758.59
2023-05-12T11:26:30.867Z,94757.25
2023-05-12T11:28:58.573Z,94762.41
2023-05-12T11:31:25.521Z,94765.03
2023-05-12T11:34:12.493Z,94761.72
2023-05-12T11:36:45.230Z,94758.16
2023-05-12T11:39:23.210Z,94765.41
2023-05-12T11:41:54.588Z,94758.47
2023-05-12T11:44:26.345Z,94762.69
2023-05-12T11:47:01.688Z,94764.59
2023-05-12T11:49:30.481Z,94761.25
2023-05-12T11:51:59.510Z,94761.56
2023-05-12T11:54:28.865Z,94766.09
2023-05-12T11:56:56.585Z,94755.72
2023-05-12T11:59:27.030Z,94761.72
2023-05-12T12:01:54.095Z,94763.16
2023-05-12T12:04:40.316Z,94766.25
2023-05-12T12:07:08.475Z,94768.09
2023-05-12T12:09:37.246Z,94771.28
2023-05-12T12:12:06.318Z,94765.53
2023-05-12T12:14:34.919Z,94768.06
2023-05-12T12:17:02.116Z,94765.78
2023-05-12T12:19:28.788Z,94765.53
2023-05-12T12:21:56.635Z,94771.31
2023-05-12T12:24:23.850Z,94759.16
2023-05-12T12:26:50.736Z,94759.44
2023-05-12T12:29:17.790Z,94764.00
2023-05-12T12:31:44.679Z,94760.34
2023-05-12T12:34:11.646Z,94756.22
2023-05-12T12:36:38.216Z,94764.00
2023-05-12T12:39:04.841Z,94764.94
2023-05-12T12:41:31.497Z,94762.25
2023-05-12T12:43:58.101Z,94753.00
2023-05-12T12:46:24.936Z,94749.81
2023-05-12T12:48:51.540Z,94750.41
2023-05-12T12:51:18.488Z,94748.91
2023-05-12T12:53:45.711Z,94750.81
2023-05-12T12:56:12.486Z,94753.19
2023-05-12T12:58:39.139Z,94755.69
2023-05-12T13:01:06.715Z,94756.88
2023-05-12T13:03:33.415Z,94751.97
2023-05-12T13:06:00.138Z,94752.59
2023-05-12T13:08:27.322Z,94754.84
2023-05-12T13:10:54.740Z,94748.16
2023-05-12T13:13:21.367Z,94745.19
2023-05-12T13:15:48.113Z,94754.59
2023-05-12T13:18:14.909Z,94750.84
2023-05-12T13:20:41.571Z,94751.13
2023-05-12T13:23:08.450Z,94752.13
2023-05-12T13:25:35.149Z,94758.84
2023-05-12T13:28:01.860Z,94763.28
2023-05-12T13:30:28.459Z,94759.50
2023-05-12T13:32:55.244Z,94754.25
2023-05-12T13:35:22.947Z,94767.44
2023-05-12T13:37:49.879Z,94772.00
2023-05-12T13:40:16.556Z,94760.22
2023-05-12T13:42:43.156Z,94756.25
2023-05-12T13:45:10.435Z,94757.88
2023-05-12T13:47:37.671Z,94758.31
2023-05-12T13:50:04.919Z,94756.53
2023-05-12T13:52:31.535Z,94761.44
2023-05-12T13:54:58.124Z,94761.00
2023-05-12T13:57:24.963Z,94761.22
2023-05-12T13:59:52.089Z,94759.69
2023-05-12T14:02:18.800Z,94754.13
2023-05-12T14:04:45.595Z,94756.59
2023-05-12T14:07:12.594Z,94760.09
2023-05-12T14:09:39.191Z,94750.75
2023-05-12T14:12:06.416Z,94755.56
2023-05-12T14:14:32.953Z,94752.38
2023-05-12T14:16:59.481Z,94751.13
2023-05-12T14:19:26.115Z,94750.94
2023-05-12T14:21:52.742Z,94757.00
2023-05-12T14:24:19.305Z,94758.06
2023-05-12T14:26:45.895Z,94754.94
2023-05-12T14:29:12.730Z,94753.75
2023-05-12T14:31:39.403Z,94748.69
2023-05-12T14:34:06.129Z,94750.50
2023-05-12T14:36:32.672Z,94758.16
2023-05-12T14:38:59.492Z,94752.28
2023-05-12T14:41:26.484Z,94749.88
2023-05-12T14:43:53.039Z,94757.94
2023-05-12T14:46:19.781Z,94754.75
2023-05-12T14:48:47.547Z,94756.34
2023-05-12T14:51:14.236Z,94748.00
2023-05-12T14:53:40.842Z,94755.94
2023-05-12T14:56:07.481Z,94744.88
2023-05-12T14:58:34.028Z,94743.03
2023-05-12T15:01:02.620Z,94737.97
2023-05-12T15:03:29.237Z,94745.84
2023-05-12T15:06:05.957Z,94741.31
2023-05-12T15:08:34.000Z,94743.03
2023-05-12T15:11:00.582Z,94742.69
2023-05-12T15:13:27.302Z,94742.47
2023-05-12T15:15:56.194Z,94749.25
2023-05-12T15:18:23.919Z,94757.25
2023-05-12T15:20:50.647Z,94754.31
2023-05-12T15:23:17.470Z,94747.06
2023-05-12T15:25:44.306Z,94748.44
2023-05-12T15:28:10.981Z,94742.41
2023-05-12T15:30:37.577Z,94748.47
2023-05-12T15:33:04.554Z,94744.47
2023-05-12T15:35:31.253Z,94749.47
2023-05-12T15:37:57.867Z,94748.09
2023-05-12T15:40:24.932Z,94751.53
2023-05-12T15:42:51.801Z,94752.13
2023-05-12T15:45:18.589Z,94750.81
2023-05-12T15:47:45.873Z,94751.38
2023-05-12T15:50:12.571Z,94751.63
2023-05-12T15:52:39.173Z,94752.19
2023-05-12T15:55:06.025Z,94754.41
2023-05-12T15:57:32.545Z,94760.13
2023-05-12T15:59:59.943Z,94750.38
2023-05-12T16:02:26.599Z,94753.13
2023-05-12T16:04:53.163Z,94762.84
2023-05-12T16:07:19.946Z,94755.19
2023-05-12T16:09:46.693Z,94765.78
2023-05-12T16:12:13.311Z,94765.91
2023-05-12T16:14:39.832Z,94764.19
2023-05-12T16:17:06.448Z,94767.88
2023-05-12T16:19:33.142Z,94773.22
2023-05-12T16:22:00.310Z,94765.44
2023-05-12T16:24:28.713Z,94769.59
2023-05-12T16:26:56.097Z,94772.47
2023-05-12T16:29:22.713Z,94768.44
2023-05-12T16:31:49.569Z,94763.75
2023-05-12T16:34:16.266Z,94764.44
2023-05-12T16:36:42.905Z,94768.50
2023-05-12T16:39:09.444Z,94770.31
2023-05-12T16:41:36.310Z,94774.75
2023-05-12T16:44:03.027Z,94776.88
2023-05-12T16:46:29.762Z,94781.56
2023-05-12T16:48:56.390Z,94779.16
2023-05-12T16:51:24.199Z,94775.63
2023-05-12T16:53:51.403Z,94775.47
2023-05-12T16:56:18.069Z,94771.09
2023-05-12T16:58:44.634Z,94772.22
2023-05-12T17:01:11.446Z,94782.72
2023-05-12T17:03:39.085Z,94773.38
2023-05-12T17:06:05.916Z,94779.16
2023-05-12T17:08:35.736Z,94784.69
2023-05-12T17:11:04.458Z,94779.50
2023-05-12T17:13:31.027Z,94782.44
2023-05-12T17:15:57.947Z,94785.50
2023-05-12T17:18:24.920Z,94787.09
2023-05-12T17:20:51.585Z,94780.84
2023-05-12T17:23:18.189Z,94779.84
2023-05-12T17:25:44.894Z,94781.00
2023-05-12T17:28:11.565Z,94789.28
2023-05-12T17:30:38.332Z,94783.94
2023-05-12T17:33:05.500Z,94784.72
2023-05-12T17:35:32.610Z,94781.00
2023-05-12T17:37:59.216Z,94784.09
2023-05-12T17:40:26.418Z,94785.53
2023-05-12T17:42:53.284Z,94791.69
2023-05-12T17:45:20.356Z,94794.44
2023-05-12T17:47:48.630Z,94794.91
2023-05-12T17:50:16.291Z,94788.75
2023-05-12T17:52:43.572Z,94790.41
2023-05-12T17:55:10.899Z,94796.69
2023-05-12T17:57:38.047Z,94793.63
2023-05-12T18:00:09.755Z,94796.38
2023-05-12T18:02:42.396Z,94787.66
2023-05-12T18:05:09.926Z,94803.00
2023-05-12T18:07:37.076Z,94801.03
2023-05-12T18:10:07.648Z,94797.66
2023-05-12T18:12:34.274Z,94804.41
2023-05-12T18:15:00.936Z,94807.13
2023-05-12T18:17:27.773Z,94804.91
2023-05-12T18:19:54.632Z,94807.31
2023-05-12T18:22:21.265Z,94809.22
2023-05-12T18:24:48.569Z,94809.41
2023-05-12T18:27:15.121Z,94814.53
2023-05-12T18:29:41.902Z,94810.66
2023-05-12T18:32:08.817Z,94806.75
2023-05-12T18:34:35.455Z,94820.97
2023-05-12T18:37:02.108Z,94805.28
2023-05-12T18:39:28.681Z,94813.50
2023-05-12T18:41:55.529Z,94809.66
2023-05-12T18:44:22.124Z,94809.13
2023-05-12T18:46:48.790Z,94809.59
2023-05-12T18:49:15.591Z,94812.66
2023-05-12T18:51:42.192Z,94816.66
2023-05-12T18:54:08.788Z,94815.84
2023-05-12T18:56:35.502Z,94816.31
2023-05-12T18:59:02.108Z,94822.13
2023-05-12T19:01:28.834Z,94828.41
2023-05-12T19:03:55.443Z,94831.00
2023-05-12T19:06:22.142Z,94833.78
2023-05-12T19:08:48.849Z,94834.56
2023-05-12T19:11:15.647Z,94839.59
2023-05-12T19:13:45.154Z,94846.41
2023-05-12T19:16:12.036Z,94842.97
2023-05-12T19:18:41.382Z,94848.16
2023-05-12T19:21:08.348Z,94838.66
2023-05-12T19:23:34.980Z,94844.72
2023-05-12T19:26:01.741Z,94847.13
2023-05-12T19:28:28.284Z,94850.38
2023-05-12T19:30:55.575Z,94851.78
2023-05-12T19:33:22.168Z,94858.41
2023-05-12T19:35:48.858Z,94856.63
2023-05-12T19:38:15.794Z,94863.72
2023-05-12T19:40:42.367Z,94862.06
2023-05-12T19:43:10.609Z,94863.81
2023-05-12T19:45:37.290Z,94867.22
2023-05-12T19:48:04.143Z,94869.66
2023-05-12T19:50:31.077Z,94866.91
2023-05-12T19:52:57.657Z,94863.81
2023-05-12T19:55:24.508Z,94865.47
2023-05-12T19:57:51.957Z,94866.72
2023-05-12T20:00:19.488Z,94862.88
2023-05-12T20:02:46.277Z,94863.66
2023-05-12T20:05:13.185Z,94860.97
2023-05-12T20:07:39.759Z,94864.16
2023-05-12T20:10:07.079Z,94863.47
2023-05-12T20:12:33.830Z,94863.66
2023-05-12T20:15:00.501Z,94865.72
2023-05-12T20:17:27.245Z,94869.59
2023-05-12T20:19:53.843Z,94874.91
2023-05-12T20:22:21.910Z,94868.94
2023-05-12T20:24:48.582Z,94870.41
2023-05-12T20:27:15.113Z,94865.16
2023-05-12T20:29:41.892Z,94869.91
2023-05-12T20:32:08.405Z,94870.72
2023-05-12T20:34:35.082Z,94864.91
2023-05-12T20:37:01.664Z,94865.16
2023-05-12T20:39:28.953Z,94861.34
2023-05-12T20:41:55.565Z,94861.78
2023-05-12T20:44:22.430Z,94867.91
2023-05-12T20:46:49.311Z,94866.13
2023-05-12T20:49:15.898Z,94860.63
2023-05-12T20:51:42.448Z,94869.31
2023-05-12T20:54:09.014Z,94868.00
2023-05-12T20:56:35.704Z,94865.13
2023-05-12T20:59:02.337Z,94866.06
2023-05-12T21:01:28.967Z,94870.06
2023-05-12T21:03:55.576Z,94866.84
2023-05-12T21:06:22.527Z,94866.84
2023-05-12T21:08:49.152Z,94867.81
2023-05-12T21:11:17.288Z,94868.41
2023-05-12T21:13:46.936Z,94867.75
2023-05-12T21:16:14.677Z,94874.00
2023-05-12T21:18:41.506Z,94867.09
2023-05-12T21:21:08.204Z,94879.97
2023-05-12T21:23:37.281Z,94868.19
2023-05-12T21:26:04.637Z,94871.75
2023-05-12T21:28:31.329Z,94874.47
2023-05-12T21:30:57.862Z,94874.91
2023-05-12T21:33:24.607Z,94868.16
2023-05-12T21:35:51.158Z,94879.84
2023-05-12T21:38:17.813Z,94877.94
2023-05-12T21:40:48.915Z,94881.63
2023-05-12T21:43:15.443Z,94883.38
2023-05-12T21:45:41.966Z,94877.50
2023-05-12T21:48:08.907Z,94876.31
2023-05-12T21:50:35.598Z,94879.09
2023-05-12T21:53:05.009Z,94878.75
2023-05-12T21:55:31.704Z,94877.41
2023-05-12T21:57:58.756Z,94879.72
2023-05-12T22:00:26.321Z,94880.81
2023-05-12T22:02:53.033Z,94883.09
2023-05-12T22:05:19.754Z,94873.50
2023-05-12T22:07:46.551Z,94876.09
2023-05-12T22:10:13.246Z,94877.06
2023-05-12T22:12:40.581Z,94866.44
2023-05-12T22:15:07.872Z,94872.56
2023-05-12T22:17:34.496Z,94871.09
2023-05-12T22:20:01.311Z,94871.25
2023-05-12T22:22:27.904Z,94873.00
2023-05-12T22:24:54.490Z,94867.66
2023-05-12T22:27:22.076Z,94867.66
2023-05-12T22:29:49.096Z,94859.53
2023-05-12T22:32:15.739Z,94857.72
2023-05-12T22:34:42.293Z,94864.53
2023-05-12T22:37:08.989Z,94865.66
2023-05-12T22:39:35.564Z,94867.84
2023-05-12T22:42:03.124Z,94860.94
2023-05-12T22:44:29.893Z,94859.19
2023-05-12T22:46:56.518Z,94868.81
2023-05-12T22:49:23.135Z,94866.41
2023-05-12T22:51:49.699Z,94862.44
2023-05-12T22:54:16.377Z,94857.56
2023-05-12T22:56:43.271Z,94870.06
2023-05-12T22:59:09.906Z,94868.53
2023-05-12T23:01:36.508Z,94869.81
2023-05-12T23:04:03.424Z,94860.94
2023-05-12T23:06:29.985Z,94866.25
2023-05-12T23:08:56.926Z,94857.34
2023-05-12T23:11:23.540Z,94857.94
2023-05-12T23:13:50.349Z,94862.78
2023-05-12T23:16:16.988Z,94863.75
2023-05-12T23:18:43.632Z,94865.81
2023-05-12T23:21:10.288Z,94863.25
2023-05-12T23:23:36.885Z,94865.00
2023-05-12T23:26:03.487Z,94864.50
2023-05-12T23:28:30.398Z,94859.19
2023-05-12T23:30:57.025Z,94856.84
2023-05-12T23:33:23.888Z,94864.56
2023-05-12T23:35:50.536Z,94856.38
2023-05-12T23:38:17.094Z,94857.00
2023-05-12T23:40:43.597Z,94855.94
2023-05-12T23:43:10.704Z,94855.59
2023-05-12T23:45:37.413Z,94845.44
2023-05-12T23:48:04.232Z,94845.03
2023-05-12T23:50:30.835Z,94849.09
2023-05-12T23:52:57.618Z,94846.84
2023-05-12T23:55:24.380Z,94839.63
2023-05-12T23:57:50.958Z,94846.69
